createdAt,value
2022-08-11T00:00:21.603Z,44.1770
2022-08-11T00:01:23.958Z,44.2610
2022-08-11T00:02:26.488Z,44.2970
2022-08-11T00:03:43.947Z,44.1930
2022-08-11T00:04:30.986Z,44.1280
2022-08-11T00:05:33.316Z,44.0080
2022-08-11T00:06:35.592Z,43.9910
2022-08-11T00:07:37.949Z,43.9670
2022-08-11T00:08:40.254Z,43.9410
2022-08-11T00:09:42.586Z,43.9390
2022-08-11T00:10:44.927Z,44.0150
2022-08-11T00:11:47.266Z,44.0090
2022-08-11T00:12:49.560Z,44.0460
2022-08-11T00:13:51.884Z,44.0030
2022-08-11T00:14:54.237Z,43.9910
2022-08-11T00:15:54.412Z,43.9330
2022-08-11T00:16:56.744Z,43.9190
2022-08-11T00:17:59.106Z,43.8610
2022-08-11T00:19:01.422Z,43.8520
2022-08-11T00:20:11.884Z,43.9050
2022-08-11T00:21:06.131Z,43.8840
2022-08-11T00:22:06.542Z,43.9810
2022-08-11T00:23:08.711Z,43.9060
2022-08-11T00:24:11.056Z,44.0230
2022-08-11T00:25:13.405Z,44.0450
2022-08-11T00:26:15.730Z,43.9850
2022-08-11T00:27:18.073Z,44.0250
2022-08-11T00:28:18.253Z,43.9950
2022-08-11T00:29:20.563Z,43.8920
2022-08-11T00:30:22.894Z,43.9770
2022-08-11T00:31:25.211Z,43.9390
2022-08-11T00:32:27.663Z,43.9110
2022-08-11T00:33:41.164Z,43.8440
2022-08-11T00:34:32.035Z,43.8500
2022-08-11T00:35:51.906Z,43.8680
2022-08-11T00:36:34.525Z,43.8600
2022-08-11T00:37:36.841Z,44.0350
2022-08-11T00:38:39.220Z,44.0510
2022-08-11T00:39:41.563Z,44.0230
2022-08-11T00:40:43.883Z,44.0290
2022-08-11T00:41:46.202Z,44.0630
2022-08-11T00:42:48.507Z,44.0630
2022-08-11T00:43:50.825Z,44.0250
2022-08-11T00:44:53.129Z,44.0190
2022-08-11T00:45:55.466Z,44.0850
2022-08-11T00:46:57.799Z,44.1210
2022-08-11T00:48:00.270Z,44.0930
2022-08-11T00:49:00.495Z,44.1210
2022-08-11T00:50:02.656Z,44.1090
2022-08-11T00:51:04.970Z,44.1090
2022-08-11T00:52:07.331Z,44.0670
2022-08-11T00:53:09.689Z,44.2210
2022-08-11T00:54:12.053Z,44.3000
2022-08-11T00:55:14.385Z,44.3380
2022-08-11T00:56:16.759Z,44.2520
2022-08-11T00:57:37.764Z,44.1980
2022-08-11T00:58:21.782Z,44.2050
2022-08-11T00:59:32.238Z,44.2050
2022-08-11T01:00:21.976Z,44.2150
2022-08-11T01:01:24.450Z,44.2460
2022-08-11T01:02:30.621Z,44.2100
2022-08-11T01:03:26.923Z,44.1870
2022-08-11T01:04:29.304Z,44.1630
2022-08-11T01:05:31.649Z,44.2270
2022-08-11T01:06:31.845Z,44.1910
2022-08-11T01:08:00.487Z,44.2460
2022-08-11T01:08:36.576Z,44.3140
2022-08-11T01:09:36.877Z,44.2880
2022-08-11T01:10:39.065Z,44.2270
2022-08-11T01:11:55.649Z,44.3280
2022-08-11T01:12:43.804Z,44.4240
2022-08-11T01:13:46.202Z,44.3820
2022-08-11T01:14:48.608Z,44.4360
2022-08-11T01:15:56.995Z,44.4560
2022-08-11T01:16:51.208Z,44.4780
2022-08-11T01:17:53.591Z,44.4360
2022-08-11T01:18:53.813Z,44.3780
2022-08-11T01:20:45.415Z,44.4500
2022-08-11T01:20:58.537Z,44.4440
2022-08-11T01:21:58.699Z,44.4020
2022-08-11T01:23:01.062Z,44.3680
2022-08-11T01:24:03.408Z,44.3500
2022-08-11T01:25:03.629Z,44.3820
2022-08-11T01:26:05.955Z,44.4440
2022-08-11T01:27:18.982Z,44.4620
2022-08-11T01:28:08.536Z,44.5260
2022-08-11T01:29:10.848Z,44.5080
2022-08-11T01:30:13.325Z,44.5240
2022-08-11T01:31:15.561Z,44.4960
2022-08-11T01:32:17.915Z,44.5240
2022-08-11T01:33:20.279Z,44.5750
2022-08-11T01:34:20.476Z,44.5700
2022-08-11T01:35:22.986Z,44.6060
2022-08-11T01:36:25.229Z,44.5760
2022-08-11T01:37:25.415Z,44.6600
2022-08-11T01:38:27.742Z,44.6760
2022-08-11T01:39:30.148Z,44.6580
2022-08-11T01:40:30.488Z,44.7400
2022-08-11T01:41:32.718Z,44.7440
2022-08-11T01:42:35.093Z,44.6700
2022-08-11T01:43:35.302Z,44.6200
2022-08-11T01:44:37.673Z,44.6440
2022-08-11T01:45:40.067Z,44.6640
2022-08-11T01:46:42.383Z,44.6640
2022-08-11T01:47:52.983Z,44.6520
2022-08-11T01:48:47.055Z,44.6760
2022-08-11T01:50:09.908Z,44.6820
2022-08-11T01:50:49.719Z,44.6640
2022-08-11T01:51:51.930Z,44.6760
2022-08-11T01:52:54.198Z,44.6440
2022-08-11T01:53:56.539Z,44.6860
2022-08-11T01:54:58.866Z,44.7060
2022-08-11T01:56:01.219Z,44.6700
2022-08-11T01:57:03.521Z,44.7060
2022-08-11T01:58:05.847Z,44.8340
2022-08-11T01:59:08.182Z,44.8580
2022-08-11T02:00:10.481Z,44.8200
2022-08-11T02:01:12.949Z,44.8580
2022-08-11T02:02:16.792Z,44.8720
2022-08-11T02:03:17.487Z,44.8820
2022-08-11T02:04:19.766Z,44.8980
2022-08-11T02:05:22.082Z,44.8900
2022-08-11T02:06:24.414Z,44.8340
2022-08-11T02:07:26.719Z,44.8340
2022-08-11T02:08:33.178Z,44.8380
2022-08-11T02:09:31.392Z,44.8700
2022-08-11T02:10:36.527Z,44.8020
2022-08-11T02:11:37.453Z,44.7900
2022-08-11T02:12:38.501Z,44.8860
2022-08-11T02:13:40.715Z,44.8580
2022-08-11T02:14:40.926Z,44.9020
2022-08-11T02:15:43.330Z,44.9540
2022-08-11T02:16:45.747Z,44.9060
2022-08-11T02:17:45.973Z,44.9080
2022-08-11T02:18:48.373Z,44.9200
2022-08-11T02:19:50.770Z,45.0040
2022-08-11T02:20:51.025Z,45.1130
2022-08-11T02:21:53.468Z,45.1620
2022-08-11T02:22:55.847Z,45.1870
2022-08-11T02:24:07.188Z,45.4640
2022-08-11T02:25:00.623Z,45.6140
2022-08-11T02:26:00.827Z,45.5200
2022-08-11T02:27:03.328Z,45.4690
2022-08-11T02:28:05.536Z,45.3390
2022-08-11T02:29:07.848Z,45.2510
2022-08-11T02:30:10.239Z,45.2170
2022-08-11T02:32:04.882Z,45.2450
2022-08-11T02:32:28.661Z,45.2110
2022-08-11T02:33:15.277Z,45.2270
2022-08-11T02:34:17.703Z,45.2590
2022-08-11T02:35:20.116Z,45.2250
2022-08-11T02:36:22.529Z,45.2210
2022-08-11T02:37:23.767Z,45.1870
2022-08-11T02:38:25.182Z,45.1460
2022-08-11T02:39:27.637Z,45.2130
2022-08-11T02:40:27.811Z,45.1950
2022-08-11T02:41:30.196Z,45.1630
2022-08-11T02:42:35.875Z,45.1850
2022-08-11T02:43:34.995Z,45.1970
2022-08-11T02:44:37.399Z,45.1870
2022-08-11T02:45:37.641Z,45.1870
2022-08-11T02:46:39.997Z,45.1950
2022-08-11T02:47:42.358Z,45.1850
2022-08-11T02:48:42.577Z,45.1570
2022-08-11T02:49:44.889Z,45.1630
2022-08-11T02:50:47.186Z,45.1750
2022-08-11T02:51:49.512Z,45.1870
2022-08-11T02:52:51.935Z,45.2870
2022-08-11T02:53:56.452Z,45.3060
2022-08-11T02:54:56.363Z,45.3860
2022-08-11T02:55:58.264Z,45.3620
2022-08-11T02:56:58.788Z,45.3800
2022-08-11T02:58:01.092Z,45.3310
2022-08-11T02:59:03.383Z,45.2710
2022-08-11T03:00:05.687Z,45.2350
2022-08-11T03:01:07.994Z,45.2870
2022-08-11T03:02:10.351Z,45.2630
2022-08-11T03:03:10.519Z,45.1810
2022-08-11T03:04:12.797Z,45.1810
2022-08-11T03:05:15.121Z,45.2190
2022-08-11T03:06:15.296Z,45.2500
2022-08-11T03:07:29.123Z,45.2010
2022-08-11T03:08:20.015Z,45.3060
2022-08-11T03:09:22.196Z,45.2550
2022-08-11T03:10:22.353Z,45.3000
2022-08-11T03:11:24.682Z,45.2630
2022-08-11T03:12:27.000Z,45.2500
2022-08-11T03:13:29.435Z,45.3000
2022-08-11T03:14:31.627Z,45.3120
2022-08-11T03:15:33.942Z,45.4080
2022-08-11T03:16:36.264Z,45.4280
2022-08-11T03:17:38.590Z,45.3620
2022-08-11T03:18:40.938Z,45.3370
2022-08-11T03:19:43.242Z,45.3580
2022-08-11T03:20:45.569Z,45.4580
2022-08-11T03:22:01.676Z,45.3800
2022-08-11T03:22:48.086Z,45.3180
2022-08-11T03:23:50.376Z,45.3230
2022-08-11T03:24:52.691Z,45.2930
2022-08-11T03:25:54.956Z,45.2690
2022-08-11T03:26:55.043Z,45.2290
2022-08-11T03:27:57.341Z,45.2030
2022-08-11T03:28:59.680Z,45.1730
2022-08-11T03:30:01.988Z,45.1810
2022-08-11T03:31:04.302Z,45.3320
2022-08-11T03:32:06.613Z,45.3400
2022-08-11T03:33:08.918Z,45.2810
2022-08-11T03:34:09.126Z,45.3100
2022-08-11T03:35:11.383Z,45.3340
2022-08-11T03:36:13.698Z,45.3940
2022-08-11T03:37:18.285Z,45.3720
2022-08-11T03:38:18.242Z,45.4400
2022-08-11T03:39:20.563Z,45.4000
2022-08-11T03:40:22.730Z,45.3400
2022-08-11T03:42:02.087Z,45.3120
2022-08-11T03:42:25.101Z,45.2690
2022-08-11T03:43:27.329Z,45.3820
2022-08-11T03:44:29.668Z,45.3840
2022-08-11T03:45:29.834Z,45.3060
2022-08-11T03:46:32.149Z,45.2930
2022-08-11T03:47:34.470Z,45.2880
2022-08-11T03:48:36.743Z,45.2690
2022-08-11T03:49:36.898Z,45.2430
2022-08-11T03:50:39.153Z,45.2070
2022-08-11T03:51:44.693Z,45.2380
2022-08-11T03:52:43.706Z,45.3480
2022-08-11T03:53:45.981Z,45.2780
2022-08-11T03:54:48.260Z,45.2780
2022-08-11T03:55:50.488Z,45.2860
2022-08-11T03:56:52.788Z,45.3820
2022-08-11T03:57:55.073Z,45.4460
2022-08-11T03:58:57.298Z,45.4770
2022-08-11T03:59:59.674Z,45.5090
2022-08-11T04:00:59.631Z,45.5930
2022-08-11T04:02:01.994Z,45.7380
2022-08-11T04:03:04.149Z,45.8870
2022-08-11T04:04:06.414Z,45.8680
2022-08-11T04:05:08.660Z,45.8500
2022-08-11T04:06:10.815Z,46.0280
2022-08-11T04:07:17.832Z,46.5250
2022-08-11T04:08:15.266Z,46.6220
2022-08-11T04:09:17.459Z,46.4630
2022-08-11T04:10:17.558Z,46.3430
2022-08-11T04:11:19.800Z,46.1920
2022-08-11T04:12:45.672Z,46.1720
2022-08-11T04:13:24.200Z,46.5780
2022-08-11T04:14:26.421Z,46.6360
2022-08-11T04:15:26.649Z,46.5730
2022-08-11T04:16:28.722Z,46.3550
2022-08-11T04:17:30.935Z,46.2390
2022-08-11T04:18:33.156Z,46.1440
2022-08-11T04:19:35.410Z,46.1380
2022-08-11T04:20:37.690Z,46.1820
2022-08-11T04:21:39.916Z,46.1760
2022-08-11T04:22:42.152Z,46.1360
2022-08-11T04:24:36.589Z,46.1580
2022-08-11T04:24:50.267Z,46.1320
2022-08-11T04:25:57.439Z,46.1580
2022-08-11T04:26:50.958Z,46.1820
2022-08-11T04:27:53.161Z,46.1640
2022-08-11T04:28:55.373Z,46.1200
2022-08-11T04:30:03.592Z,46.1020
2022-08-11T04:30:59.892Z,46.0620
2022-08-11T04:32:02.121Z,46.0520
2022-08-11T04:33:02.226Z,46.0570
2022-08-11T04:34:04.482Z,46.0450
2022-08-11T04:35:06.733Z,45.9350
2022-08-11T04:36:09.011Z,45.9350
2022-08-11T04:37:11.241Z,45.9290
2022-08-11T04:38:13.491Z,45.8960
2022-08-11T04:39:15.772Z,45.8730
2022-08-11T04:40:17.978Z,45.8780
2022-08-11T04:41:20.274Z,45.8400
2022-08-11T04:42:22.481Z,45.8600
2022-08-11T04:43:24.739Z,45.8750
2022-08-11T04:44:26.995Z,45.8460
2022-08-11T04:45:27.095Z,45.8440
2022-08-11T04:46:29.343Z,45.9740
2022-08-11T04:47:31.552Z,46.1590
2022-08-11T04:48:33.817Z,46.2550
2022-08-11T04:49:36.047Z,46.1430
2022-08-11T04:50:38.274Z,46.0340
2022-08-11T04:51:40.623Z,46.0050
2022-08-11T04:52:43.190Z,46.0150
2022-08-11T04:55:13.322Z,45.9410
2022-08-11T04:56:15.527Z,45.7980
2022-08-11T04:57:17.863Z,45.7040
2022-08-11T04:58:20.066Z,45.5710
2022-08-11T04:59:22.344Z,45.6560
2022-08-11T05:00:24.630Z,45.7980
2022-08-11T05:01:27.024Z,45.8750
2022-08-11T05:02:27.189Z,45.7660
2022-08-11T05:03:29.348Z,45.6870
2022-08-11T05:04:31.637Z,45.6270
2022-08-11T05:05:33.944Z,45.6490
2022-08-11T05:06:36.250Z,45.6410
2022-08-11T05:07:38.595Z,45.6720
2022-08-11T05:08:38.727Z,45.7580
2022-08-11T05:09:41.053Z,45.6630
2022-08-11T05:10:43.536Z,45.5710
2022-08-11T05:11:45.641Z,45.5670
2022-08-11T05:12:47.979Z,45.5270
2022-08-11T05:13:50.256Z,45.5370
2022-08-11T05:14:52.533Z,45.5590
2022-08-11T05:15:52.676Z,45.4960
2022-08-11T05:16:54.967Z,45.5710
2022-08-11T05:17:57.285Z,45.6130
2022-08-11T05:18:59.542Z,45.5610
2022-08-11T05:20:01.800Z,45.5330
2022-08-11T05:21:05.184Z,45.5510
2022-08-11T05:22:06.391Z,45.5890
2022-08-11T05:23:06.575Z,45.6190
2022-08-11T05:24:08.853Z,45.7120
2022-08-11T05:25:11.161Z,45.7660
2022-08-11T05:26:46.347Z,45.6390
2022-08-11T05:27:14.129Z,45.6570
2022-08-11T05:28:18.399Z,45.6590
2022-08-11T05:28:26.656Z,45.6590
2022-08-11T05:29:28.978Z,45.6790
2022-08-11T05:30:34.366Z,45.6110
2022-08-11T05:31:33.571Z,45.7250
2022-08-11T05:32:33.731Z,45.6190
2022-08-11T05:33:36.173Z,45.5160
2022-08-11T05:34:38.313Z,45.4660
2022-08-11T05:36:01.722Z,45.4320
2022-08-11T05:36:42.910Z,45.4940
2022-08-11T05:37:45.219Z,45.4850
2022-08-11T05:38:45.424Z,45.6200
2022-08-11T05:39:47.703Z,45.4470
2022-08-11T05:40:51.190Z,45.5460
2022-08-11T05:41:52.117Z,45.6540
2022-08-11T05:42:54.375Z,45.6080
2022-08-11T05:44:21.716Z,45.5270
2022-08-11T05:44:58.989Z,45.6470
2022-08-11T05:46:03.885Z,45.3510
2022-08-11T05:47:01.425Z,45.3190
2022-08-11T05:48:03.733Z,45.2500
2022-08-11T05:49:06.040Z,45.1340
2022-08-11T05:50:08.322Z,45.1580
2022-08-11T05:51:10.702Z,45.1300
2022-08-11T05:52:16.598Z,45.3520
2022-08-11T05:53:16.236Z,45.2600
2022-08-11T05:54:28.462Z,45.5630
2022-08-11T05:55:17.569Z,45.5730
2022-08-11T05:56:19.799Z,45.1300
2022-08-11T05:57:44.088Z,45.6180
2022-08-11T05:58:24.262Z,45.6090
2022-08-11T05:59:26.450Z,45.4160
2022-08-11T06:00:26.600Z,45.6370
2022-08-11T06:01:28.780Z,45.6310
2022-08-11T06:02:30.959Z,45.4330
2022-08-11T06:03:33.203Z,45.4320
2022-08-11T06:04:35.420Z,45.4200
2022-08-11T06:05:43.305Z,45.1930
2022-08-11T06:06:44.763Z,45.0660
2022-08-11T06:07:49.040Z,44.8490
2022-08-11T06:08:44.386Z,44.9370
2022-08-11T06:09:46.638Z,44.8590
2022-08-11T06:10:48.880Z,44.8770
2022-08-11T06:11:51.245Z,44.9770
2022-08-11T06:12:53.344Z,45.1090
2022-08-11T06:13:55.562Z,45.1210
2022-08-11T06:14:55.628Z,44.9830
2022-08-11T06:15:57.845Z,44.6550
2022-08-11T06:17:00.199Z,44.3420
2022-08-11T06:18:02.285Z,44.3330
2022-08-11T06:19:04.475Z,44.0760
2022-08-11T06:20:06.657Z,44.1220
2022-08-11T06:21:08.762Z,44.1400
2022-08-11T06:22:12.971Z,44.1600
2022-08-11T06:23:15.047Z,44.1770
2022-08-11T06:24:17.183Z,44.1280
2022-08-11T06:25:17.230Z,44.0860
2022-08-11T06:26:19.429Z,43.9690
2022-08-11T06:27:21.686Z,43.8340
2022-08-11T06:28:23.933Z,44.0330
2022-08-11T06:29:38.146Z,43.9990
2022-08-11T06:30:26.372Z,43.6630
2022-08-11T06:31:28.540Z,43.8460
2022-08-11T06:32:30.716Z,43.7900
2022-08-11T06:33:32.930Z,43.8950
2022-08-11T06:34:35.126Z,43.8280
2022-08-11T06:35:37.972Z,43.8700
2022-08-11T06:36:39.667Z,43.8970
2022-08-11T06:37:41.910Z,43.8580
2022-08-11T06:38:44.167Z,43.7840
2022-08-11T06:39:46.435Z,43.6750
2022-08-11T06:40:46.483Z,43.5950
2022-08-11T06:41:48.754Z,43.5820
2022-08-11T06:42:51.001Z,43.6630
2022-08-11T06:43:55.414Z,43.6080
2022-08-11T06:44:55.541Z,43.6300
2022-08-11T06:45:57.811Z,43.7700
2022-08-11T06:47:00.055Z,43.6470
2022-08-11T06:48:02.339Z,43.5960
2022-08-11T06:49:04.575Z,43.6560
2022-08-11T06:50:04.662Z,43.6870
2022-08-11T06:51:06.938Z,43.5880
2022-08-11T06:52:32.099Z,43.7230
2022-08-11T06:53:11.414Z,43.7600
2022-08-11T06:54:13.764Z,43.6290
2022-08-11T06:55:15.967Z,43.6950
2022-08-11T06:56:18.099Z,43.6630
2022-08-11T06:57:35.725Z,43.7540
2022-08-11T06:58:22.466Z,43.8380
2022-08-11T06:59:24.763Z,43.8100
2022-08-11T07:00:26.844Z,43.8950
2022-08-11T07:01:29.143Z,43.7760
2022-08-11T07:02:31.505Z,43.7560
2022-08-11T07:03:31.387Z,43.7820
2022-08-11T07:04:33.750Z,43.8180
2022-08-11T07:05:35.853Z,43.8100
2022-08-11T07:06:50.514Z,43.8220
2022-08-11T07:07:40.343Z,43.9750
2022-08-11T07:08:42.556Z,43.9990
2022-08-11T07:09:42.675Z,43.9750
2022-08-11T07:10:44.876Z,43.8910
2022-08-11T07:11:47.074Z,43.8480
2022-08-11T07:12:47.110Z,43.7400
2022-08-11T07:15:19.563Z,43.9970
2022-08-11T07:16:26.406Z,43.9090
2022-08-11T07:17:21.737Z,43.9710
2022-08-11T07:18:23.924Z,43.9920
2022-08-11T07:19:26.131Z,43.9310
2022-08-11T07:20:28.516Z,43.9090
2022-08-11T07:22:01.599Z,43.9610
2022-08-11T07:22:32.923Z,44.0720
2022-08-11T07:23:35.102Z,44.0560
2022-08-11T07:24:59.307Z,43.9820
2022-08-11T07:25:39.692Z,44.0500
2022-08-11T07:26:39.847Z,44.0540
2022-08-11T07:27:42.169Z,44.0930
2022-08-11T07:28:44.475Z,44.1020
2022-08-11T07:29:46.773Z,44.0890
2022-08-11T07:30:51.847Z,44.0590
2022-08-11T07:31:51.387Z,44.1050
2022-08-11T07:32:51.547Z,44.1410
2022-08-11T07:34:07.502Z,44.1270
2022-08-11T07:34:56.163Z,44.1530
2022-08-11T07:35:58.489Z,44.2210
2022-08-11T07:37:00.754Z,44.1350
2022-08-11T07:38:05.678Z,44.1850
2022-08-11T07:39:05.387Z,44.2370
2022-08-11T07:40:05.574Z,44.2680
2022-08-11T07:41:07.936Z,44.1970
2022-08-11T07:42:10.224Z,44.2520
2022-08-11T07:43:12.549Z,44.2320
2022-08-11T07:44:14.866Z,44.1750
2022-08-11T07:45:15.035Z,44.1680
2022-08-11T07:46:17.357Z,44.1750
2022-08-11T07:47:19.620Z,44.1880
2022-08-11T07:48:21.926Z,44.1710
2022-08-11T07:49:24.219Z,44.2500
2022-08-11T07:50:26.484Z,44.2200
2022-08-11T07:51:28.838Z,44.1960
2022-08-11T07:52:29.024Z,44.1800
2022-08-11T07:53:31.306Z,44.3240
2022-08-11T07:54:33.756Z,44.3580
2022-08-11T07:55:50.242Z,44.5530
2022-08-11T07:57:07.395Z,44.5310
2022-08-11T07:58:14.017Z,44.5410
2022-08-11T07:58:45.678Z,44.6710
2022-08-11T08:00:03.760Z,44.6090
2022-08-11T08:00:45.350Z,44.5310
2022-08-11T08:01:47.749Z,44.4790
2022-08-11T08:02:49.978Z,44.4630
2022-08-11T08:03:54.167Z,44.5990
2022-08-11T08:04:52.489Z,44.4930
2022-08-11T08:05:54.831Z,44.5050
2022-08-11T08:06:57.175Z,44.5550
2022-08-11T08:07:59.448Z,44.6680
2022-08-11T08:09:01.755Z,44.5640
2022-08-11T08:10:01.909Z,44.5830
2022-08-11T08:11:04.209Z,44.6500
2022-08-11T08:12:06.534Z,44.6500
2022-08-11T08:13:08.817Z,44.5720
2022-08-11T08:14:11.111Z,44.6120
2022-08-11T08:15:13.416Z,44.6120
2022-08-11T08:16:13.583Z,44.6900
2022-08-11T08:17:15.914Z,44.7240
2022-08-11T08:18:26.423Z,44.7920
2022-08-11T08:19:20.401Z,44.7800
2022-08-11T08:20:22.747Z,44.6960
2022-08-11T08:21:25.020Z,44.6660
2022-08-11T08:22:38.073Z,44.6020
2022-08-11T08:23:27.469Z,44.7080
2022-08-11T08:24:29.764Z,44.7540
2022-08-11T08:25:32.057Z,44.6920
2022-08-11T08:26:34.302Z,44.6800
2022-08-11T08:27:36.549Z,44.6860
2022-08-11T08:28:38.770Z,44.7290
2022-08-11T08:29:41.036Z,44.8950
2022-08-11T08:30:41.207Z,45.0940
2022-08-11T08:31:43.528Z,45.0310
2022-08-11T08:32:45.860Z,45.0930
2022-08-11T08:33:48.145Z,45.5310
2022-08-11T08:34:50.432Z,45.4520
2022-08-11T08:35:55.986Z,45.5870
2022-08-11T08:36:54.866Z,45.5520
2022-08-11T08:37:57.151Z,45.4900
2022-08-11T08:38:57.248Z,45.4320
2022-08-11T08:39:59.614Z,45.4900
2022-08-11T08:41:01.810Z,45.5520
2022-08-11T08:42:04.103Z,45.4860
2022-08-11T08:43:06.406Z,45.4620
2022-08-11T08:44:37.147Z,45.4640
2022-08-11T08:45:10.906Z,45.3940
2022-08-11T08:46:13.193Z,45.3890
2022-08-11T08:47:13.360Z,45.4340
2022-08-11T08:48:15.721Z,45.3890
2022-08-11T08:49:18.000Z,45.3030
2022-08-11T08:50:20.309Z,45.3270
2022-08-11T08:51:22.572Z,45.3270
2022-08-11T08:52:30.970Z,45.3030
2022-08-11T08:53:25.127Z,45.3450
2022-08-11T08:54:27.441Z,45.2650
2022-08-11T08:55:29.770Z,45.1790
2022-08-11T08:56:32.105Z,45.1670
2022-08-11T08:57:39.615Z,45.2030
2022-08-11T08:58:34.653Z,45.2410
2022-08-11T08:59:47.780Z,45.2470
2022-08-11T09:00:39.270Z,45.2190
2022-08-11T09:01:41.693Z,45.2170
2022-08-11T09:02:41.802Z,45.1350
2022-08-11T09:04:04.650Z,45.1550
2022-08-11T09:04:44.325Z,45.1910
2022-08-11T09:05:46.665Z,45.2230
2022-08-11T09:06:48.794Z,45.1970
2022-08-11T09:07:49.215Z,45.2470
2022-08-11T09:08:51.899Z,45.2410
2022-08-11T09:09:53.803Z,45.2470
2022-08-11T09:10:56.158Z,45.2470
2022-08-11T09:11:58.493Z,45.2470
2022-08-11T09:13:00.844Z,45.2970
2022-08-11T09:14:05.956Z,45.3150
2022-08-11T09:15:05.449Z,45.3450
2022-08-11T09:16:07.767Z,45.3150
2022-08-11T09:17:07.925Z,45.3650
2022-08-11T09:18:10.245Z,45.3670
2022-08-11T09:19:12.602Z,45.3670
2022-08-11T09:20:14.903Z,45.4050
2022-08-11T09:21:39.252Z,45.3790
2022-08-11T09:22:17.437Z,45.4010
2022-08-11T09:24:07.328Z,45.3770
2022-08-11T09:24:26.298Z,45.4640
2022-08-11T09:25:24.402Z,45.4200
2022-08-11T09:26:30.413Z,45.3790
2022-08-11T09:27:29.103Z,45.4230
2022-08-11T09:28:29.161Z,45.4420
2022-08-11T09:29:31.479Z,45.4330
2022-08-11T09:30:33.759Z,45.4330
2022-08-11T09:31:40.054Z,45.4130
2022-08-11T09:32:38.308Z,45.4640
2022-08-11T09:33:40.620Z,45.4190
2022-08-11T09:34:42.928Z,45.4580
2022-08-11T09:35:43.069Z,45.4510
2022-08-11T09:36:45.392Z,45.4330
2022-08-11T09:37:55.361Z,45.4270
2022-08-11T09:38:50.041Z,45.5080
2022-08-11T09:39:52.467Z,45.4330
2022-08-11T09:40:56.983Z,45.4540
2022-08-11T09:42:01.908Z,45.4580
2022-08-11T09:42:57.153Z,45.4940
2022-08-11T09:44:03.890Z,45.4640
2022-08-11T09:45:00.957Z,45.5080
2022-08-11T09:46:01.930Z,45.5200
2022-08-11T09:47:04.250Z,45.4980
2022-08-11T09:48:06.557Z,45.4790
2022-08-11T09:49:08.853Z,45.4590
2022-08-11T09:50:11.128Z,45.4980
2022-08-11T09:51:13.422Z,45.5100
2022-08-11T09:52:13.603Z,45.5160
2022-08-11T09:53:41.065Z,45.4860
2022-08-11T09:54:18.246Z,45.5480
2022-08-11T09:55:20.602Z,45.5350
2022-08-11T09:56:22.885Z,45.5600
2022-08-11T09:57:25.165Z,45.5210
2022-08-11T09:58:42.971Z,45.5350
2022-08-11T09:59:27.633Z,45.5840
2022-08-11T10:00:29.947Z,45.5600
2022-08-11T10:01:32.406Z,45.5530
2022-08-11T10:02:34.557Z,45.5780
2022-08-11T10:03:40.142Z,45.5780
2022-08-11T10:04:37.102Z,45.5720
2022-08-11T10:05:39.496Z,45.5960
2022-08-11T10:06:41.812Z,45.6020
2022-08-11T10:07:44.162Z,45.5780
2022-08-11T10:08:46.424Z,45.5780
2022-08-11T10:09:46.609Z,45.5750
2022-08-11T10:10:48.983Z,45.6000
2022-08-11T10:11:55.430Z,45.5880
2022-08-11T10:12:53.545Z,45.6220
2022-08-11T10:14:33.777Z,45.6240
2022-08-11T10:14:58.189Z,45.6160
2022-08-11T10:16:14.841Z,45.6120
2022-08-11T10:17:00.717Z,45.6280
2022-08-11T10:18:03.093Z,45.6240
2022-08-11T10:19:05.404Z,45.6390
2022-08-11T10:20:07.746Z,45.6410
2022-08-11T10:21:10.129Z,45.5950
2022-08-11T10:22:10.316Z,45.6010
2022-08-11T10:23:12.702Z,45.6010
2022-08-11T10:24:15.030Z,45.6230
2022-08-11T10:25:15.232Z,45.6050
2022-08-11T10:26:17.589Z,45.7040
2022-08-11T10:27:19.879Z,45.6570
2022-08-11T10:28:36.610Z,45.6290
2022-08-11T10:29:24.530Z,45.6630
2022-08-11T10:30:26.820Z,45.6850
2022-08-11T10:31:27.523Z,45.7070
2022-08-11T10:32:31.376Z,45.7090
2022-08-11T10:33:37.776Z,45.7190
2022-08-11T10:34:33.827Z,45.7160
2022-08-11T10:35:36.111Z,45.7440
2022-08-11T10:36:38.413Z,45.7480
2022-08-11T10:38:08.876Z,45.7410
2022-08-11T10:38:42.925Z,45.7600
2022-08-11T10:39:43.109Z,45.7540
2022-08-11T10:40:45.324Z,45.7480
2022-08-11T10:42:07.347Z,45.7680
2022-08-11T10:42:57.742Z,45.7960
2022-08-11T10:44:02.170Z,45.8160
2022-08-11T10:44:54.391Z,45.8460
2022-08-11T10:45:56.686Z,45.8240
2022-08-11T10:46:59.023Z,45.8300
2022-08-11T10:47:59.123Z,45.8120
2022-08-11T10:49:01.405Z,45.8120
2022-08-11T10:50:05.385Z,45.8060
2022-08-11T10:51:05.909Z,45.8360
2022-08-11T10:52:08.179Z,45.8300
2022-08-11T10:53:10.408Z,45.8180
2022-08-11T10:54:12.707Z,45.8360
2022-08-11T10:55:14.962Z,45.8360
2022-08-11T10:56:15.066Z,45.8180
2022-08-11T10:57:15.235Z,45.7940
2022-08-11T10:58:17.513Z,45.8280
2022-08-11T10:59:19.775Z,45.7900
2022-08-11T11:00:22.045Z,45.7530
2022-08-11T11:01:24.494Z,45.8180
2022-08-11T11:02:26.643Z,45.7070
2022-08-11T11:03:26.757Z,45.7940
2022-08-11T11:04:29.048Z,45.7940
2022-08-11T11:05:31.339Z,45.8360
2022-08-11T11:06:33.609Z,45.8300
2022-08-11T11:07:35.903Z,45.8000
2022-08-11T11:08:38.215Z,45.9180
2022-08-11T11:09:40.377Z,45.8240
2022-08-11T11:10:42.649Z,45.9770
2022-08-11T11:11:42.774Z,45.9200
2022-08-11T11:12:45.077Z,46.0200
2022-08-11T11:13:54.917Z,46.0570
2022-08-11T11:14:53.737Z,46.1210
2022-08-11T11:15:51.824Z,46.1540
2022-08-11T11:16:54.084Z,46.0510
2022-08-11T11:17:56.382Z,46.1370
2022-08-11T11:19:01.108Z,46.0460
2022-08-11T11:19:58.678Z,46.0860
2022-08-11T11:21:00.950Z,46.0900
2022-08-11T11:22:03.211Z,46.1890
2022-08-11T11:23:05.491Z,46.1650
2022-08-11T11:24:07.670Z,46.2130
2022-08-11T11:25:09.887Z,46.2640
2022-08-11T11:26:48.745Z,46.3950
2022-08-11T11:27:50.929Z,46.2960
2022-08-11T11:28:53.212Z,46.3590
2022-08-11T11:29:55.439Z,46.3470
2022-08-11T11:30:55.573Z,46.3260
2022-08-11T11:31:57.832Z,46.3440
2022-08-11T11:33:00.057Z,46.3260
2022-08-11T11:34:11.927Z,46.3260
2022-08-11T11:35:04.651Z,46.3890
2022-08-11T11:36:06.950Z,46.4000
2022-08-11T11:37:09.253Z,46.3700
2022-08-11T11:38:13.851Z,46.3880
2022-08-11T11:39:11.756Z,46.4060
2022-08-11T11:40:14.080Z,46.3950
2022-08-11T11:41:16.244Z,46.3560
2022-08-11T11:42:18.553Z,46.3720
2022-08-11T11:43:20.824Z,46.3780
2022-08-11T11:44:23.158Z,46.3420
2022-08-11T11:45:25.414Z,46.3720
2022-08-11T11:46:29.958Z,46.3780
2022-08-11T11:47:27.856Z,46.4050
2022-08-11T11:48:30.157Z,46.3780
2022-08-11T11:49:32.597Z,46.3720
2022-08-11T11:50:34.745Z,46.3820
2022-08-11T11:51:37.054Z,46.3500
2022-08-11T11:52:37.297Z,46.3850
2022-08-11T11:53:39.513Z,46.3540
2022-08-11T11:54:41.877Z,46.3760
2022-08-11T11:55:44.067Z,46.4190
2022-08-11T11:56:46.353Z,46.4060
2022-08-11T11:57:59.055Z,46.4100
2022-08-11T11:58:48.838Z,46.4410
2022-08-11T11:59:51.190Z,46.4450
2022-08-11T12:00:53.491Z,46.4100
2022-08-11T12:01:55.800Z,46.4230
2022-08-11T12:02:58.154Z,46.4050
2022-08-11T12:03:59.234Z,46.3600
2022-08-11T12:05:02.648Z,46.4050
2022-08-11T12:06:04.954Z,46.3420
2022-08-11T12:07:05.073Z,46.3540
2022-08-11T12:08:12.619Z,46.3950
2022-08-11T12:09:09.660Z,46.4050
2022-08-11T12:10:12.062Z,46.4350
2022-08-11T12:11:14.262Z,46.4040
2022-08-11T12:12:16.561Z,46.3480
2022-08-11T12:13:18.873Z,46.2980
2022-08-11T12:14:19.036Z,46.3540
2022-08-11T12:16:03.557Z,46.2880
2022-08-11T12:16:35.566Z,46.2570
2022-08-11T12:17:25.949Z,46.3300
2022-08-11T12:18:28.284Z,46.3480
2022-08-11T12:19:35.460Z,46.3600
2022-08-11T12:20:33.138Z,46.4350
2022-08-11T12:21:32.983Z,46.4530
2022-08-11T12:22:35.249Z,46.4350
2022-08-11T12:23:37.461Z,46.4290
2022-08-11T12:24:39.708Z,46.4450
2022-08-11T12:25:41.984Z,46.4330
2022-08-11T12:26:46.400Z,46.4730
2022-08-11T12:27:15.925Z,46.5210
2022-08-11T12:28:14.493Z,46.5540
2022-08-11T12:29:16.803Z,46.5280
2022-08-11T12:30:19.112Z,46.5310
2022-08-11T12:31:21.473Z,46.5310